Time;durP1;ratioP1;P1;durP2;ratioP2;P2;SDS_P1;SDS_P2;PMS_P1;PMS_P2;Temp;Humidity;BMP_temperature;BMP_pressure;BME280_temperature;BME280_humidity;BME280_pressure;Samples;Min_cycle;Max_cycle;Signal;HPM_P1;HPM_P2
2022/07/08 00:02:07;;;;;;;19.77;16.37;;;;;;;22.14;96.52;99107.66;5067718;28;20153;-87
2022/07/08 00:04:33;;;;;;;18.83;15.97;;;;;;;21.77;97.03;99058.06;5072934;28;20266;-88
2022/07/08 00:06:58;;;;;;;18.83;16.40;;;;;;;20.24;96.72;98782.66;5070092;28;20169;-89
2022/07/08 00:09:26;;;;;;;21.40;16.93;;;;;;;19.41;97.45;98647.69;5068700;28;20651;-89
2022/07/08 00:11:52;;;;;;;19.80;16.33;;;;;;;18.98;95.55;98547.75;5051906;28;20192;-89
2022/07/08 00:14:17;;;;;;;19.20;16.17;;;;;;;19.31;95.71;98615.16;5050793;28;20680;-88
2022/07/08 00:16:43;;;;;;;20.77;16.33;;;;;;;18.91;95.64;98549.47;5075521;28;20243;-88
2022/07/08 00:19:14;;;;;;;19.70;16.53;;;;;;;20.20;96.03;98756.94;5053657;28;20169;-88
2022/07/08 00:21:44;;;;;;;20.63;17.23;;;;;;;18.79;95.88;98514.44;5056677;28;20248;-87
2022/07/08 00:24:11;;;;;;;19.70;16.70;;;;;;;21.04;97.42;98887.66;5078060;28;20196;-89
2022/07/08 00:26:36;;;;;;;20.80;16.07;;;;;;;20.07;95.47;98711.59;5064935;28;20651;-90
2022/07/08 00:29:02;;;;;;;18.43;16.20;;;;;;;20.16;95.06;98714.97;5063123;28;20170;-88
2022/07/08 00:31:28;;;;;;;19.03;15.80;;;;;;;21.53;95.41;98967.19;5053690;28;20181;-89
2022/07/08 00:33:53;;;;;;;20.33;16.27;;;;;;;22.28;97.70;99128.19;5036674;28;20161;-90
2022/07/08 00:36:19;;;;;;;20.67;16.93;;;;;;;22.37;97.80;99111.78;5054797;28;20157;-88
2022/07/08 00:38:44;;;;;;;19.33;16.77;;;;;;;21.09;97.86;98898.81;5053607;28;20224;-89
2022/07/08 00:41:10;;;;;;;20.20;16.67;;;;;;;21.81;98.08;98998.78;5054023;28;20157;-89
2022/07/08 00:43:41;;;;;;;20.33;17.27;;;;;;;21.66;99.67;98979.13;5054241;28;20567;-87
2022/07/08 00:46:07;;;;;;;21.03;16.67;;;;;;;21.52;98.47;98961.19;5054544;28;20169;-88
2022/07/08 00:48:34;;;;;;;18.53;15.17;;;;;;;22.37;96.05;99099.75;5054109;28;20193;-88
2022/07/08 00:51:02;;;;;;;17.87;15.90;;;;;;;22.37;97.29;99099.75;5053879;28;20220;-89
2022/07/08 00:53:30;;;;;;;17.70;15.57;;;;;;;21.74;96.37;98993.66;5053595;28;20526;-89
2022/07/08 00:55:56;;;;;;;19.63;16.07;;;;;;;22.30;96.49;99105.84;5053897;28;20165;-89
2022/07/08 00:58:23;;;;;;;17.90;15.93;;;;;;;20.84;98.06;98876.63;5053752;28;20181;-89
2022/07/08 01:00:48;;;;;;;20.70;15.60;;;;;;;18.46;95.88;98464.97;5057839;28;20189;-88
2022/07/08 01:03:14;;;;;;;19.40;15.77;;;;;;;19.75;100.00;98773.41;5039092;28;20277;-89
2022/07/08 01:05:39;;;;;;;20.27;16.33;;;;;;;19.35;100.00;98716.13;5056028;28;20188;-89
2022/07/08 01:08:05;;;;;;;18.53;16.17;;;;;;;19.28;100.00;98674.19;5056100;28;20165;-89
2022/07/08 01:10:32;;;;;;;20.67;15.67;;;;;;;18.50;100.00;98541.00;5036953;28;20176;-90
2022/07/08 01:12:57;;;;;;;19.80;16.03;;;;;;;19.42;100.00;98693.00;5037451;28;20169;-90
2022/07/08 01:15:23;;;;;;;20.53;16.17;;;;;;;19.65;100.00;98736.59;5036983;28;20642;-89
2022/07/08 01:17:49;;;;;;;20.80;17.57;;;;;;;20.57;100.00;98890.47;5052263;28;20172;-88
2022/07/08 01:20:15;;;;;;;27.07;20.67;;;;;;;21.87;100.00;99094.09;5052836;28;20188;-88
2022/07/08 01:22:41;;;;;;;24.57;20.03;;;;;;;21.27;100.00;98985.38;5052953;28;20197;-89
2022/07/08 01:25:08;;;;;;;23.87;18.83;;;;;;;21.89;100.00;99090.66;5053605;28;20692;-88
2022/07/08 01:27:34;;;;;;;22.97;17.93;;;;;;;21.32;100.00;98981.06;5035800;28;20533;-87
2022/07/08 01:30:00;;;;;;;23.20;17.70;;;;;;;20.15;100.00;98802.38;5053365;28;20161;-89
2022/07/08 01:32:33;;;;;;;24.47;17.90;;;;;;;21.99;100.00;99091.44;5036814;28;20269;-88
2022/07/08 01:34:59;;;;;;;21.50;17.30;;;;;;;19.87;100.00;98781.91;5052824;28;20169;-88
2022/07/08 01:37:24;;;;;;;18.47;14.33;;;;;;;21.09;100.00;99050.72;5052535;28;20725;-88
2022/07/08 01:39:50;;;;;;;17.23;14.20;;;;;;;19.77;98.52;98793.09;5072782;28;20169;-87
2022/07/08 01:42:15;;;;;;;20.80;14.43;;;;;;;20.10;99.31;98876.94;5076649;28;20157;-89
2022/07/08 01:44:41;;;;;;;19.47;14.63;;;;;;;19.88;100.00;98858.13;5047664;28;20239;-89
2022/07/08 01:47:07;;;;;;;18.67;14.53;;;;;;;19.18;100.00;98767.47;5055317;28;20168;-89
2022/07/08 01:49:32;;;;;;;20.20;15.57;;;;;;;21.17;100.00;99104.75;5055080;28;20169;-89
2022/07/08 01:51:58;;;;;;;22.33;15.67;;;;;;;19.13;100.00;98727.28;5038850;28;20212;-90
2022/07/08 01:54:24;;;;;;;21.93;16.33;;;;;;;17.45;100.00;98487.16;5057730;28;20524;-89
2022/07/08 01:56:49;;;;;;;21.50;16.20;;;;;;;19.02;100.00;98711.03;5040468;28;20215;-89
2022/07/08 01:59:15;;;;;;;22.33;16.93;;;;;;;18.72;100.00;98681.13;5039280;28;20513;-88
2022/07/08 02:01:41;;;;;;;19.73;16.03;;;;;;;18.48;100.00;98594.00;5056279;28;20166;-88
2022/07/08 02:04:07;;;;;;;21.03;16.93;;;;;;;20.93;100.00;98996.69;5054268;28;20216;-89
2022/07/08 02:06:32;;;;;;;24.10;16.67;;;;;;;18.56;100.00;98638.41;5054658;28;20634;-88
2022/07/08 02:08:57;;;;;;;23.07;17.90;;;;;;;18.76;100.00;98662.34;5036078;28;20319;-88
2022/07/08 02:14:07;;;;;;;24.30;17.83;;;;;;;20.33;100.00;98934.28;5053420;28;20165;-88
2022/07/08 02:16:32;;;;;;;26.70;19.33;;;;;;;19.55;100.00;98798.25;5035280;28;20170;-88
2022/07/08 02:18:58;;;;;;;27.67;20.00;;;;;;;21.35;100.00;99094.34;5052700;28;20159;-88
2022/07/08 02:21:23;;;;;;;27.77;20.40;;;;;;;17.94;100.00;98526.50;5053242;28;20173;-89
2022/07/08 02:23:49;;;;;;;27.93;20.97;;;;;;;19.07;100.00;98745.22;5053408;28;20221;-90
2022/07/08 02:26:14;;;;;;;29.80;21.53;;;;;;;18.65;100.00;98698.22;5053380;28;20165;-89
2022/07/08 02:28:40;;;;;;;25.43;21.03;;;;;;;18.12;100.00;98633.25;5036244;28;20170;-89
2022/07/08 02:31:05;;;;;;;28.83;20.87;;;;;;;17.93;100.00;98634.06;5048707;28;20193;-89
2022/07/08 02:33:31;;;;;;;27.80;21.60;;;;;;;20.51;100.00;99046.53;5058211;28;20697;-89
2022/07/08 02:35:56;;;;;;;29.53;21.40;;;;;;;19.47;100.00;98918.09;5057929;28;20197;-88
2022/07/08 02:38:22;;;;;;;29.87;21.23;;;;;;;20.02;100.00;99046.53;5058377;28;20249;-90
2022/07/08 02:40:48;;;;;;;30.27;22.50;;;;;;;18.38;100.00;98777.63;5039305;28;21287;-89
2022/07/08 02:43:13;;;;;;;32.53;21.87;;;;;;;17.69;100.00;98660.44;5057576;28;20220;-88
2022/07/08 02:45:39;;;;;;;29.43;21.77;;;;;;;18.59;100.00;98808.50;5060170;28;20240;-88
2022/07/08 02:48:07;;;;;;;31.33;21.33;;;;;;;20.52;100.00;99131.41;5060667;28;20176;-86
2022/07/08 02:50:34;;;;;;;28.73;22.60;;;;;;;20.11;100.00;99071.38;5063491;28;20185;-88
2022/07/08 02:52:59;;;;;;;28.27;21.70;;;;;;;16.66;100.00;98488.59;5061053;28;20164;-89
2022/07/08 02:55:25;;;;;;;33.23;22.43;;;;;;;16.33;100.00;98438.16;5060366;28;20173;-88
2022/07/08 02:57:51;;;;;;;30.77;21.83;;;;;;;16.50;100.00;98527.66;5062062;28;20161;-88
2022/07/08 03:00:18;;;;;;;35.30;22.40;;;;;;;20.06;100.00;99139.91;5065032;28;20161;-87
2022/07/08 03:02:43;;;;;;;28.97;21.20;;;;;;;16.98;100.00;98596.13;5050152;28;20661;-89
2022/07/08 03:05:10;;;;;;;27.97;20.77;;;;;;;18.45;100.00;98819.50;5044911;28;20176;-88
2022/07/08 03:07:36;;;;;;;30.20;21.37;;;;;;;16.71;100.00;98481.81;5045486;28;20181;-88
2022/07/08 03:10:01;;;;;;;33.87;23.13;;;;;;;19.73;100.00;98947.19;5061762;28;20161;-87
2022/07/08 03:12:27;;;;;;;39.53;29.73;;;;;;;19.06;100.00;98847.03;5063287;28;20169;-88
2022/07/08 03:14:52;;;;;;;45.63;29.27;;;;;;;19.57;100.00;98928.38;5063764;28;20192;-88
2022/07/08 03:17:18;;;;;;;39.40;29.73;;;;;;;18.12;100.00;98649.47;5065889;28;20165;-87
2022/07/08 03:19:43;;;;;;;41.87;26.83;;;;;;;18.02;100.00;98657.13;5078357;28;20166;-86
2022/07/08 03:22:09;;;;;;;28.70;21.07;;;;;;;18.81;100.00;98748.69;5060963;28;20634;-87
2022/07/08 03:24:37;;;;;;;26.27;20.70;;;;;;;19.78;100.00;98907.81;5047755;28;20197;-88
2022/07/08 03:27:03;;;;;;;25.20;18.10;;;;;;;18.64;100.00;98693.09;5044697;28;20272;-88
2022/07/08 03:29:29;;;;;;;33.00;24.70;;;;;;;18.51;100.00;98719.59;5062192;28;20248;-88
2022/07/08 03:31:54;;;;;;;33.27;23.30;;;;;;;20.44;100.00;98995.97;5065503;28;20177;-85
2022/07/08 03:34:20;;;;;;;30.93;22.40;;;;;;;18.79;100.00;98687.97;5065488;28;20613;-86
2022/07/08 03:36:45;;;;;;;21.77;17.33;;;;;;;19.75;100.00;98871.00;5065392;28;20276;-88
2022/07/08 03:45:07;;;;;;;24.67;17.17;;;;;;;21.65;100.00;99132.84;3502545;23;20549;-86
2022/07/08 03:47:54;;;;;;;22.67;17.37;;;;;;;21.67;100.00;99138.00;4899942;29;20288;-89
2022/07/08 03:50:20;;;;;;;23.47;16.97;;;;;;;21.95;100.00;99141.34;4861448;29;20249;-86
2022/07/08 03:52:48;;;;;;;22.30;17.43;;;;;;;22.02;100.00;99143.84;4862070;29;20204;-87
2022/07/08 03:55:39;;;;;;;23.13;16.50;;;;;;;22.08;100.00;99154.13;4835852;29;20256;-87
2022/07/08 03:58:14;;;;;;;25.53;16.53;;;;;;;21.48;100.00;99033.34;5490049;23;20220;-88
2022/07/08 04:00:41;;;;;;;23.60;16.27;;;;;;;19.94;100.00;98770.75;4925772;29;20243;-87
2022/07/08 04:03:12;;;;;;;21.83;17.03;;;;;;;22.28;100.00;99151.41;4925822;29;20201;-87
2022/07/08 04:05:44;;;;;;;21.23;16.10;;;;;;;21.49;99.55;99035.91;4923390;29;20190;-87
2022/07/08 04:08:10;;;;;;;20.03;15.67;;;;;;;20.18;99.05;98828.91;4930684;29;20182;-89
2022/07/08 04:10:35;;;;;;;22.20;16.50;;;;;;;22.22;98.73;99182.41;4925240;29;20245;-89
2022/07/08 04:13:01;;;;;;;23.30;17.07;;;;;;;19.74;98.52;98728.88;4941397;29;20627;-87
2022/07/08 04:15:26;;;;;;;20.00;15.90;;;;;;;19.53;98.28;98695.56;4944792;29;20182;-86
2022/07/08 04:17:52;;;;;;;21.53;16.60;;;;;;;19.72;98.16;98737.44;4933628;29;20178;-87
2022/07/08 04:20:18;;;;;;;24.53;17.27;;;;;;;21.07;99.25;98943.44;4912404;29;20162;-87
2022/07/08 04:22:44;;;;;;;22.97;17.43;;;;;;;18.83;97.88;98561.44;4930252;29;20170;-87
2022/07/08 04:25:09;;;;;;;22.53;16.87;;;;;;;19.60;100.00;98770.88;4946514;29;20245;-87
2022/07/08 04:27:35;;;;;;;21.67;17.00;;;;;;;20.82;100.00;99112.50;4936941;29;20242;-86
2022/07/08 04:30:01;;;;;;;25.33;17.83;;;;;;;17.69;100.00;98624.59;4927936;29;20227;-86
2022/07/08 04:32:26;;;;;;;23.93;17.07;;;;;;;19.72;100.00;98889.00;4922634;29;20174;-86
2022/07/08 04:34:52;;;;;;;20.50;16.53;;;;;;;21.12;100.00;99078.16;4899630;29;20238;-88
2022/07/08 04:37:18;;;;;;;22.67;17.43;;;;;;;21.54;100.00;99162.97;4928962;29;20197;-87
2022/07/08 04:39:44;;;;;;;22.77;18.53;;;;;;;21.12;100.00;99052.41;4940449;29;20241;-89
2022/07/08 04:42:09;;;;;;;22.97;17.90;;;;;;;19.75;100.00;98788.81;4939717;29;20177;-89
2022/07/08 04:44:35;;;;;;;26.33;18.30;;;;;;;19.65;100.00;98769.13;4939412;29;20199;-87
2022/07/08 04:47:00;;;;;;;23.00;17.67;;;;;;;21.48;100.00;99097.75;4901777;29;20232;-87
2022/07/08 04:49:25;;;;;;;23.53;17.37;;;;;;;20.50;100.00;98903.38;4902823;29;20186;-89
2022/07/08 04:51:51;;;;;;;23.23;17.33;;;;;;;21.64;100.00;99071.91;4922047;29;20185;-88
2022/07/08 04:54:16;;;;;;;25.40;17.90;;;;;;;19.96;100.00;98773.31;4930578;29;20693;-88
2022/07/08 04:56:42;;;;;;;25.93;17.60;;;;;;;21.74;99.60;99080.41;4899848;29;20549;-91
2022/07/08 04:59:08;;;;;;;25.50;17.63;;;;;;;20.89;98.12;98884.31;4901142;29;20794;-89
2022/07/08 05:01:34;;;;;;;22.23;17.10;;;;;;;21.35;97.50;98949.28;4901465;29;20237;-88
2022/07/08 05:03:59;;;;;;;25.67;17.53;;;;;;;19.08;96.63;98572.50;4917324;29;20218;-89
2022/07/08 05:06:25;;;;;;;21.90;17.00;;;;;;;20.11;95.72;98721.84;4899564;29;20182;-88
2022/07/08 05:08:50;;;;;;;24.57;17.23;;;;;;;22.90;95.35;99163.81;4917582;29;20174;-86
2022/07/08 05:11:16;;;;;;;22.43;17.13;;;;;;;23.16;94.04;99181.63;4916108;29;20188;-87
2022/07/08 05:13:46;;;;;;;21.67;16.83;;;;;;;19.99;92.16;98638.00;4917743;29;20173;-90
2022/07/08 05:16:11;;;;;;;20.97;17.13;;;;;;;20.81;93.48;98802.03;4902780;29;20204;-90
2022/07/08 05:18:37;;;;;;;22.97;16.67;;;;;;;23.32;92.66;99190.94;4904342;29;20174;-90
2022/07/08 05:21:03;;;;;;;20.43;17.43;;;;;;;21.23;92.07;98813.78;4920479;29;20177;-89
2022/07/08 05:23:28;;;;;;;21.10;17.07;;;;;;;22.43;92.31;99006.81;4906516;29;20239;-89
2022/07/08 05:25:56;;;;;;;24.53;18.30;;;;;;;23.00;93.04;99170.59;4922761;29;20562;-90
2022/07/08 05:28:21;;;;;;;26.17;18.07;;;;;;;20.00;92.69;98678.22;4910397;29;20260;-90
2022/07/08 05:30:47;;;;;;;28.03;19.70;;;;;;;20.05;93.65;98660.22;4942056;29;20228;-87
2022/07/08 05:33:12;;;;;;;25.57;18.87;;;;;;;23.69;90.70;99188.81;4943915;29;20280;-89
2022/07/08 05:35:38;;;;;;;22.70;18.03;;;;;;;24.07;89.37;99190.03;4938782;29;20261;-91
2022/07/08 05:38:03;;;;;;;22.60;18.33;;;;;;;23.06;88.80;99002.69;4917863;29;20233;-88
2022/07/08 05:40:52;;;;;;;26.27;19.37;;;;;;;19.50;89.57;98428.59;4904348;29;20186;-90
2022/07/08 05:43:17;;;;;;;23.60;18.80;;;;;;;21.12;89.18;98674.00;4918644;29;20202;-83
2022/07/08 05:45:43;;;;;;;21.90;17.97;;;;;;;22.19;87.53;98790.47;4900015;29;20216;-87
2022/07/08 05:48:08;;;;;;;24.67;18.57;;;;;;;22.46;85.87;98826.22;4903310;29;20264;-86
2022/07/08 05:50:33;;;;;;;22.83;18.53;;;;;;;22.70;84.48;98815.59;4916609;29;20695;-87
2022/07/08 05:52:59;;;;;;;23.03;18.50;;;;;;;23.01;85.23;98892.59;4912249;29;20689;-89
2022/07/08 05:55:24;;;;;;;22.37;18.63;;;;;;;24.57;85.19;99167.72;4882972;29;20675;-89
2022/07/08 05:57:50;;;;;;;22.67;18.30;;;;;;;22.25;89.31;98957.97;4905976;29;20186;-88
2022/07/08 06:00:15;;;;;;;26.43;17.80;;;;;;;22.45;88.29;98914.78;4880624;29;20316;-87
2022/07/08 06:02:41;;;;;;;21.70;17.70;;;;;;;22.40;85.72;98810.81;4916893;29;20202;-87
2022/07/08 06:05:07;;;;;;;21.63;16.70;;;;;;;21.68;83.69;98620.09;4919591;29;20178;-87
2022/07/08 06:07:33;;;;;;;24.13;17.17;;;;;;;22.19;86.28;98800.78;4911832;29;20169;-87
2022/07/08 06:10:00;;;;;;;19.97;16.70;;;;;;;22.23;86.87;98834.22;4940705;29;20265;-87
2022/07/08 06:12:25;;;;;;;19.43;16.60;;;;;;;22.41;85.50;98791.03;4932347;29;20532;-90
2022/07/08 06:14:51;;;;;;;23.00;17.40;;;;;;;22.20;84.05;98731.13;4904772;29;20189;-86
2022/07/08 06:17:16;;;;;;;21.03;16.70;;;;;;;24.47;81.63;98965.16;4905110;29;20209;-87
2022/07/08 06:19:41;;;;;;;20.17;16.20;;;;;;;23.15;78.18;98665.97;4921790;29;20204;-88
2022/07/08 06:22:08;;;;;;;18.90;16.90;;;;;;;23.86;76.40;98735.25;4922325;29;20170;-87
2022/07/08 06:24:34;;;;;;;21.77;17.03;;;;;;;25.22;76.17;98912.66;4923089;29;20190;-87
2022/07/08 06:26:59;;;;;;;18.23;15.93;;;;;;;26.27;75.47;99084.81;4923148;29;20519;-86
2022/07/08 06:29:25;;;;;;;19.83;16.40;;;;;;;25.18;76.49;98934.34;4924255;29;20246;-85
2022/07/08 06:31:50;;;;;;;17.97;15.90;;;;;;;25.05;74.19;98835.31;4925916;29;20193;-86
2022/07/08 06:34:16;;;;;;;18.33;15.10;;;;;;;24.82;73.18;98811.69;4926407;29;20170;-86
2022/07/08 06:36:41;;;;;;;22.77;19.13;;;;;;;26.20;74.40;99104.91;4913230;29;20174;-86
2022/07/08 06:39:08;;;;;;;28.33;23.43;;;;;;;24.32;76.12;98810.19;4932475;29;20170;-85
2022/07/08 06:41:34;;;;;;;20.43;18.20;;;;;;;26.41;73.99;99055.91;4927264;29;20158;-86
2022/07/08 06:43:59;;;;;;;22.55;17.25;;;;;;;26.07;72.82;98955.53;4907671;29;20676;-86
2022/07/08 06:46:25;;;;;;;15.90;13.70;;;;;;;25.39;74.85;99010.75;4929266;29;20249;-84
2022/07/08 06:48:51;;;;;;;15.97;14.27;;;;;;;25.00;73.64;98896.75;4925910;29;20180;-86
2022/07/08 06:51:16;;;;;;;17.87;15.17;;;;;;;24.51;75.83;98883.09;4926121;29;20166;-87
2022/07/08 06:56:26;;;;;;;17.23;14.63;;;;;;;25.34;74.57;98955.56;4922053;29;20193;-88
2022/07/08 06:58:51;;;;;;;16.43;14.70;;;;;;;26.07;73.99;99035.13;4922096;29;20217;-88
2022/07/08 07:01:17;;;;;;;16.00;12.43;;;;;;;24.62;73.34;98879.41;4935028;29;20169;-88
2022/07/08 07:03:42;;;;;;;15.00;12.80;;;;;;;24.99;74.62;98959.81;4927101;29;20185;-87
2022/07/08 07:06:08;;;;;;;14.63;13.10;;;;;;;26.23;72.96;99071.06;4921920;29;20169;-86
2022/07/08 07:08:33;;;;;;;14.57;12.88;;;;;;;26.91;70.62;99091.84;4936971;29;20170;-88
2022/07/08 07:10:59;;;;;;;14.70;12.98;;;;;;;26.50;71.15;99064.34;4924349;29;20575;-87
2022/07/08 07:13:24;;;;;;;15.05;13.45;;;;;;;25.12;69.90;98810.97;4921425;29;20173;-87
2022/07/08 07:15:50;;;;;;;16.17;12.93;;;;;;;27.58;69.93;99142.81;4921524;29;20183;-87
2022/07/08 07:18:15;;;;;;;16.00;12.68;;;;;;;26.69;68.50;98976.41;4921895;29;20256;-86
2022/07/08 07:20:41;;;;;;;15.10;12.68;;;;;;;27.25;68.20;99053.59;4922218;29;20555;-86
2022/07/08 07:23:06;;;;;;;14.10;12.70;;;;;;;26.30;69.58;98955.81;4920626;29;20835;-86
2022/07/08 07:25:32;;;;;;;14.80;13.38;;;;;;;27.89;68.66;99143.63;4905008;29;20169;-86
2022/07/08 07:27:57;;;;;;;16.27;13.65;;;;;;;27.53;67.46;99019.88;4920420;29;20521;-87
2022/07/08 07:30:24;;;;;;;15.57;13.98;;;;;;;27.18;68.28;99052.09;4921649;29;20191;-89
2022/07/08 07:32:51;;;;;;;16.80;13.40;;;;;;;27.47;68.60;99143.13;4923039;29;20200;-88
2022/07/08 07:35:17;;;;;;;15.85;13.90;;;;;;;26.15;68.31;98874.94;4921312;29;20193;-86
2022/07/08 07:37:43;;;;;;;14.52;13.02;;;;;;;27.45;68.85;99081.66;4920459;29;20661;-88
2022/07/08 07:40:08;;;;;;;16.67;13.80;;;;;;;27.24;67.07;98945.34;4916770;29;20543;-86
2022/07/08 07:42:34;;;;;;;14.45;12.85;;;;;;;27.50;65.18;98888.19;4916394;29;20280;-89
2022/07/08 07:45:02;;;;;;;15.43;13.65;;;;;;;27.98;66.01;99005.41;4924391;29;20739;-87
2022/07/08 07:47:28;;;;;;;15.02;13.48;;;;;;;28.65;64.71;99069.13;4924641;29;20169;-88
2022/07/08 07:49:53;;;;;;;15.18;13.30;;;;;;;28.65;65.06;99136.88;4926531;29;20217;-87
2022/07/08 07:52:19;;;;;;;17.08;14.15;;;;;;;27.01;67.81;99040.47;4921375;29;20177;-87
2022/07/08 07:54:44;;;;;;;16.00;14.30;;;;;;;26.02;67.92;98853.59;4921472;29;20169;-87
2022/07/08 07:57:10;;;;;;;15.88;14.15;;;;;;;25.81;69.26;98838.63;4925407;29;20545;-86
2022/07/08 07:59:36;;;;;;;15.55;13.90;;;;;;;25.46;68.34;98702.13;4924230;29;20234;-88
2022/07/08 08:15:05;;;;;;;19.08;15.05;;;;;;;26.16;73.72;99125.75;5091009;28;20293;-88
2022/07/08 08:17:38;;;;;;;18.55;15.32;;;;;;;25.47;72.18;98889.63;5092422;28;20269;-88
2022/07/08 08:20:10;;;;;;;16.63;14.68;;;;;;;25.38;70.32;98801.72;5085527;28;20678;-88
2022/07/08 08:22:35;;;;;;;17.20;15.40;;;;;;;27.37;70.18;99122.59;5077686;28;20187;-89
2022/07/08 08:25:02;;;;;;;17.77;15.82;;;;;;;27.51;68.73;99121.34;5102319;28;20168;-87
2022/07/08 08:27:29;;;;;;;17.15;15.45;;;;;;;25.34;67.07;98653.22;5113765;28;20217;-90
2022/07/08 08:29:54;;;;;;;15.82;14.13;;;;;;;28.30;67.05;99111.13;5106152;28;20264;-86
2022/07/08 08:32:20;;;;;;;17.73;14.40;;;;;;;24.23;68.19;98473.25;5089555;28;20179;-86
2022/07/08 08:34:46;;;;;;;16.58;14.77;;;;;;;26.50;69.03;98860.94;5095995;28;20202;-89
2022/07/08 08:37:12;;;;;;;16.88;15.07;;;;;;;25.42;69.87;98773.06;5091623;28;20187;-90
2022/07/08 08:39:39;;;;;;;17.35;15.65;;;;;;;25.41;70.45;98781.72;5090318;28;20203;-87
2022/07/08 08:42:06;;;;;;;15.57;13.98;;;;;;;24.98;70.33;98693.03;5094577;28;20186;-88
2022/07/08 08:44:32;;;;;;;18.83;14.90;;;;;;;25.94;66.94;98736.22;5091578;28;20267;-88
2022/07/08 08:46:58;;;;;;;17.38;14.52;;;;;;;26.82;64.59;98785.53;5090725;28;20195;-88
2022/07/08 08:49:25;;;;;;;16.15;14.40;;;;;;;27.94;64.13;98917.06;5094117;28;20163;-91
2022/07/08 08:51:51;;;;;;;16.23;14.63;;;;;;;25.38;64.09;98496.72;5090510;28;20352;-88
2022/07/08 08:54:18;;;;;;;16.55;14.95;;;;;;;28.25;65.12;99040.13;5078310;28;20220;-88
2022/07/08 08:56:48;;;;;;;16.55;14.82;;;;;;;28.88;64.94;99101.38;5079128;28;20718;-87
2022/07/08 08:59:17;;;;;;;16.40;14.68;;;;;;;29.08;64.65;99078.91;5070723;28;20187;-87
2022/07/08 09:01:43;;;;;;;15.98;14.43;;;;;;;28.09;63.55;98875.78;5067006;28;20180;-84
2022/07/08 09:04:12;;;;;;;16.85;14.25;;;;;;;29.52;62.82;99097.31;5065096;28;20551;-86
2022/07/08 09:06:39;;;;;;;16.50;14.80;;;;;;;27.84;62.63;98853.22;5085863;28;20560;-86
2022/07/08 09:09:06;;;;;;;16.60;14.80;;;;;;;28.48;64.28;99061.03;5092938;28;20226;-87
2022/07/08 09:11:33;;;;;;;17.88;15.20;;;;;;;28.54;63.50;99053.00;5093219;28;20184;-85
2022/07/08 09:14:20;;;;;;;18.15;13.65;;;;;;;29.02;63.49;99075.66;5052007;28;20233;-86
2022/07/08 09:17:12;;;;;;;16.23;14.27;;;;;;;29.19;62.97;99070.69;5028404;28;20185;-85
2022/07/08 09:19:41;;;;;;;15.80;13.68;;;;;;;29.64;61.09;99066.38;5029540;28;20209;-87
2022/07/08 09:22:08;;;;;;;14.07;12.70;;;;;;;29.70;61.28;99047.84;5028885;28;20653;-86
2022/07/08 09:24:34;;;;;;;13.68;12.38;;;;;;;29.90;59.21;99070.59;5025371;28;20204;-86
2022/07/08 09:27:18;;;;;;;14.25;12.80;;;;;;;29.49;59.21;99004.34;5014284;28;20189;-85
2022/07/08 09:30:01;;;;;;;14.02;12.55;;;;;;;28.62;59.99;98954.59;5014776;28;20182;-87
2022/07/08 09:32:26;;;;;;;14.00;12.70;;;;;;;29.55;58.70;99019.78;5015869;28;20646;-86
2022/07/08 09:34:52;;;;;;;13.52;12.00;;;;;;;29.57;58.26;98963.16;5013670;28;20210;-85
2022/07/08 09:37:19;;;;;;;13.32;12.02;;;;;;;27.57;58.72;98698.13;5015792;28;20336;-87
2022/07/08 09:39:45;;;;;;;12.40;11.07;;;;;;;29.30;58.61;98985.09;5015717;28;20210;-89
2022/07/08 09:42:14;;;;;;;12.27;11.18;;;;;;;30.19;57.62;99072.06;5017198;28;20191;-87
2022/07/08 09:44:40;;;;;;;11.45;10.35;;;;;;;30.79;56.63;99072.09;5015930;28;20192;-88
2022/07/08 09:47:13;;;;;;;11.75;10.55;;;;;;;29.57;55.91;98900.53;5015292;28;20178;-86
2022/07/08 09:49:41;;;;;;;11.07;10.00;;;;;;;29.53;53.58;98878.06;5016431;28;20188;-86
2022/07/08 09:52:08;;;;;;;11.23;10.13;;;;;;;30.33;54.39;99072.31;5015045;28;20190;-86
2022/07/08 09:54:33;;;;;;;12.88;10.88;;;;;;;29.66;57.39;99027.19;5014428;28;20576;-86
2022/07/08 09:56:58;;;;;;;11.73;10.63;;;;;;;30.08;58.21;99069.03;5014852;28;20192;-84
2022/07/08 09:59:24;;;;;;;12.50;10.88;;;;;;;29.94;56.33;99009.53;5023987;28;20229;-85
2022/07/08 10:01:53;;;;;;;13.25;10.52;;;;;;;30.59;54.61;99052.97;5026529;28;20194;-85
2022/07/08 10:04:24;;;;;;;11.02;9.73;;;;;;;30.47;55.20;99043.03;5023654;28;20231;-86
2022/07/08 10:06:54;;;;;;;10.30;8.82;;;;;;;29.86;54.57;98925.44;5014485;28;20181;-87
2022/07/08 10:09:20;;;;;;;8.50;7.70;;;;;;;30.41;51.13;98994.47;5015898;28;20673;-87
2022/07/08 10:11:47;;;;;;;8.95;8.15;;;;;;;29.64;53.56;98977.63;5022192;28;20292;-87
2022/07/08 10:14:13;;;;;;;10.10;8.70;;;;;;;29.18;54.11;98887.31;5006091;28;21075;-86
2022/07/08 10:16:40;;;;;;;9.65;8.63;;;;;;;29.97;54.89;99037.28;5017484;28;20268;-86
2022/07/08 10:19:13;;;;;;;10.27;8.52;;;;;;;28.54;53.48;98786.47;5015712;28;20203;-89
2022/07/08 10:21:43;;;;;;;11.32;8.77;;;;;;;29.64;53.99;98958.53;5018652;28;20279;-89
2022/07/08 10:24:13;;;;;;;9.98;8.70;;;;;;;28.18;53.57;98668.94;5020260;28;20192;-84
2022/07/08 10:26:40;;;;;;;9.90;8.65;;;;;;;29.30;54.75;98820.81;5018487;28;20182;-87
2022/07/08 10:29:11;;;;;;;8.13;7.32;;;;;;;29.80;52.91;99007.44;5019083;28;20669;-88
2022/07/08 10:31:53;;;;;;;8.05;7.35;;;;;;;28.97;52.68;98869.03;5023608;28;20180;-88
2022/07/08 10:34:21;;;;;;;7.97;7.18;;;;;;;30.11;51.51;99000.97;5021610;28;20303;-86
2022/07/08 10:36:53;;;;;;;8.40;7.60;;;;;;;30.15;51.80;99007.78;5020680;28;20280;-89
2022/07/08 10:39:26;;;;;;;7.70;7.00;;;;;;;29.50;52.65;98882.59;5015176;28;20654;-87
2022/07/08 10:41:57;;;;;;;6.75;6.15;;;;;;;30.08;50.84;99003.75;5014586;28;20185;-86
2022/07/08 10:44:45;;;;;;;6.50;5.90;;;;;;;29.68;49.99;99018.38;5019037;28;20235;-87
2022/07/08 10:47:15;;;;;;;6.50;5.90;;;;;;;30.01;50.74;99012.72;5031998;28;20186;-88
2022/07/08 10:49:41;;;;;;;7.68;6.97;;;;;;;30.10;51.85;98958.38;5034262;28;20207;-85
2022/07/08 10:52:07;;;;;;;8.50;6.85;;;;;;;30.19;52.26;98996.31;5026224;28;20190;-86
2022/07/08 10:54:37;;;;;;;8.60;7.70;;;;;;;30.33;52.54;98986.94;5018797;28;20225;-87
2022/07/08 10:57:09;;;;;;;8.65;7.78;;;;;;;30.28;53.74;98975.00;5014892;28;20177;-87
2022/07/08 10:59:36;;;;;;;8.30;7.50;;;;;;;29.78;53.31;98990.97;5016369;28;20532;-86
2022/07/08 11:02:14;;;;;;;8.63;7.70;;;;;;;29.30;53.26;98859.91;5018495;28;20211;-86
2022/07/08 11:04:40;;;;;;;8.40;7.60;;;;;;;30.28;52.90;98967.16;5017620;28;20194;-87
2022/07/08 11:07:15;;;;;;;8.20;6.78;;;;;;;30.06;52.02;98971.59;5014289;28;20199;-87
2022/07/08 11:09:42;;;;;;;7.75;7.00;;;;;;;29.12;51.57;98808.47;5017636;28;20185;-86
2022/07/08 11:12:11;;;;;;;7.35;6.65;;;;;;;30.22;50.91;98951.75;5016592;28;20187;-88
2022/07/08 11:14:45;;;;;;;8.63;6.68;;;;;;;29.74;51.45;98845.03;4990888;28;20251;-87
2022/07/08 11:17:18;;;;;;;7.70;6.97;;;;;;;30.51;51.07;98948.78;4994346;28;20194;-87
2022/07/08 11:19:45;;;;;;;7.72;6.93;;;;;;;29.66;52.88;98855.78;4994075;28;20200;-87
2022/07/08 11:22:11;;;;;;;7.65;6.90;;;;;;;28.35;52.05;98611.00;4994664;28;20186;-87
2022/07/08 11:24:42;;;;;;;7.97;7.25;;;;;;;30.34;51.66;98912.03;4995491;28;20564;-90
2022/07/08 11:27:07;;;;;;;7.50;6.80;;;;;;;29.49;50.45;98756.50;4995300;28;20202;-89
2022/07/08 11:29:34;;;;;;;7.18;6.47;;;;;;;30.02;51.21;98834.28;5000754;28;20183;-88
2022/07/08 11:32:01;;;;;;;9.40;6.88;;;;;;;30.19;51.32;98834.38;5012056;28;20193;-87
2022/07/08 11:34:27;;;;;;;7.28;6.68;;;;;;;31.16;49.97;98958.88;4995906;28;20213;-87
2022/07/08 11:36:56;;;;;;;9.07;6.88;;;;;;;30.62;49.89;98856.81;4995065;28;20200;-86
2022/07/08 11:39:22;;;;;;;7.15;6.45;;;;;;;30.43;49.72;98788.03;4995347;28;20190;-88
2022/07/08 11:41:48;;;;;;;6.97;5.97;;;;;;;31.14;47.61;98884.00;4994544;28;20180;-87